Time;durP1;ratioP1;P1;durP2;ratioP2;P2;SDS_P1;SDS_P2;PMS_P1;PMS_P2;Temp;Humidity;BMP_temperature;BMP_pressure;BME280_temperature;BME280_humidity;BME280_pressure;Samples;Min_cycle;Max_cycle;Signal;HPM_P1;HPM_P2
2022/09/15 00:02:33;;;;;;;;;11.60;11.60;28.80;99.90;;;;;;4980988;28;9622;-71
2022/09/15 00:05:06;;;;;;;;;11.20;11.20;28.80;99.90;;;;;;4985091;28;8918;-71
2022/09/15 00:07:38;;;;;;;;;12.60;12.60;28.80;99.90;;;;;;4959347;28;9592;-68
2022/09/15 00:10:09;;;;;;;;;13.00;13.00;28.70;99.90;;;;;;4981210;28;8885;-72
2022/09/15 00:12:39;;;;;;;;;10.40;10.40;28.70;99.90;;;;;;4987373;28;8916;-73
2022/09/15 00:15:14;;;;;;;;;12.60;12.60;28.70;99.90;;;;;;4957774;28;8849;-72
2022/09/15 00:17:50;;;;;;;;;8.40;8.40;28.60;99.90;;;;;;4955176;28;9659;-73
2022/09/15 00:20:26;;;;;;;;;10.60;10.60;28.50;99.90;;;;;;4956564;28;8873;-72
2022/09/15 00:22:58;;;;;;;;;12.00;12.00;28.50;99.90;;;;;;4954818;28;8854;-72
2022/09/15 00:25:34;;;;;;;;;10.60;10.60;28.50;99.90;;;;;;4956087;28;8865;-71
2022/09/15 00:28:06;;;;;;;;;10.60;10.60;28.40;99.90;;;;;;4985858;28;8897;-71
2022/09/15 00:30:43;;;;;;;;;11.60;11.60;28.40;99.90;;;;;;4956361;28;9643;-71
2022/09/15 00:33:14;;;;;;;;;9.60;9.60;28.30;99.90;;;;;;4952189;28;8890;-71
2022/09/15 00:35:48;;;;;;;;;11.60;11.60;28.30;99.90;;;;;;4952478;28;8839;-71
2022/09/15 00:38:20;;;;;;;;;10.20;10.20;28.30;99.90;;;;;;4966652;28;8967;-72
2022/09/15 00:40:54;;;;;;;;;11.00;11.00;28.20;99.90;;;;;;4956595;28;8838;-72
2022/09/15 00:43:44;;;;;;;;;10.25;10.25;28.20;99.90;;;;;;4971668;28;8861;-71
2022/09/15 00:46:16;;;;;;;;;10.20;10.20;28.10;99.90;;;;;;4953802;28;8993;-69
2022/09/15 00:49:02;;;;;;;;;10.40;10.40;28.10;99.90;;;;;;4952891;28;8835;-70
2022/09/15 00:51:35;;;;;;;;;9.80;9.80;28.10;99.90;;;;;;4973815;28;8871;-70
2022/09/15 00:54:11;;;;;;;;;11.00;11.00;28.00;99.90;;;;;;4952380;28;8808;-70
2022/09/15 00:56:43;;;;;;;;;11.00;11.00;27.90;99.90;;;;;;4984658;28;8869;-72
2022/09/15 00:59:19;;;;;;;;;11.25;11.25;27.90;99.90;;;;;;4955850;28;8827;-72
2022/09/15 01:01:54;;;;;;;;;11.25;11.25;27.90;99.90;;;;;;4938006;28;8925;-70
2022/09/15 01:04:24;;;;;;;;;10.25;10.25;27.80;99.90;;;;;;4962566;28;8859;-69
2022/09/15 01:06:58;;;;;;;;;10.00;10.00;27.80;99.90;;;;;;4968445;28;8859;-73
2022/09/15 01:09:49;;;;;;;;;11.20;11.20;27.70;99.90;;;;;;4956221;28;8874;-71
2022/09/15 01:12:23;;;;;;;;;9.40;9.40;27.70;99.90;;;;;;4955047;28;8880;-70
2022/09/15 01:14:52;;;;;;;;;11.60;11.60;27.70;99.90;;;;;;4955589;28;8870;-71
2022/09/15 01:18:10;;;;;;;;;10.20;10.20;27.60;99.90;;;;;;4985790;28;8889;-70
2022/09/15 01:20:57;;;;;;;;;10.60;10.60;27.60;99.90;;;;;;4951679;28;8848;-71
2022/09/15 01:24:20;;;;;;;;;8.40;8.40;27.50;99.90;;;;;;4979231;28;8877;-72
2022/09/15 01:26:58;;;;;;;;;11.00;11.00;27.50;99.90;;;;;;4918436;28;8889;-70
2022/09/15 01:29:40;;;;;;;;;9.00;9.00;27.40;99.90;;;;;;4956853;28;9198;-69
2022/09/15 01:35:40;;;;;;;;;8.40;8.40;27.40;99.90;;;;;;4954045;28;9987;-70
2022/09/15 01:38:36;;;;;;;;;9.40;9.40;27.30;99.90;;;;;;4973910;28;8905;-72
2022/09/15 01:41:37;;;;;;;;;9.00;9.00;27.30;99.90;;;;;;4955514;28;9605;-71
2022/09/15 01:44:19;;;;;;;;;9.00;9.00;27.30;99.90;;;;;;4956418;28;8839;-70
2022/09/15 01:46:56;;;;;;;;;10.00;10.00;27.20;99.90;;;;;;4980870;28;9647;-71
2022/09/15 01:49:49;;;;;;;;;11.75;10.50;27.20;99.90;;;;;;4988613;28;8855;-71
2022/09/15 01:52:22;;;;;;;;;10.75;10.75;27.20;99.90;;;;;;4956083;28;8890;-69
2022/09/15 01:55:01;;;;;;;;;10.00;10.00;27.10;99.90;;;;;;4952042;28;8889;-70
2022/09/15 01:57:32;;;;;;;;;9.00;9.00;27.10;99.90;;;;;;4955232;28;9327;-71
2022/09/15 02:00:06;;;;;;;;;10.50;10.50;27.10;99.90;;;;;;4954456;28;8854;-71
2022/09/15 02:03:03;;;;;;;;;9.50;9.50;27.00;99.90;;;;;;4981047;28;8902;-68
2022/09/15 02:05:43;;;;;;;;;9.00;9.00;27.00;99.90;;;;;;4950921;28;8997;-71
2022/09/15 02:08:34;;;;;;;;;10.00;10.00;26.90;99.90;;;;;;4957954;28;8889;-70
2022/09/15 02:11:24;;;;;;;;;9.75;9.75;26.90;99.90;;;;;;4960564;28;8842;-70
2022/09/15 02:14:19;;;;;;;;;9.50;9.50;26.90;99.90;;;;;;4967421;28;8859;-70
2022/09/15 02:16:54;;;;;;;;;11.00;11.00;26.80;99.90;;;;;;4950478;28;8851;-71
2022/09/15 02:19:40;;;;;;;;;9.25;9.25;26.80;99.90;;;;;;4953248;28;8905;-71
2022/09/15 02:22:31;;;;;;;;;9.00;9.00;26.70;99.90;;;;;;4980531;28;8868;-69
2022/09/15 02:25:14;;;;;;;;;11.00;11.00;26.80;99.90;;;;;;4933953;28;8847;-70
2022/09/15 02:27:49;;;;;;;;;11.00;11.00;26.70;99.90;;;;;;4972948;28;9016;-69
2022/09/15 02:30:21;;;;;;;;;10.25;10.25;26.70;99.90;;;;;;4956346;28;8909;-70
2022/09/15 02:33:01;;;;;;;;;10.50;10.50;26.70;99.90;;;;;;4956206;28;8857;-71
2022/09/15 02:35:36;;;;;;;;;11.75;11.75;26.60;99.90;;;;;;4983948;28;8885;-68
2022/09/15 02:38:08;;;;;;;;;8.25;7.50;26.60;99.90;;;;;;4959996;28;8855;-69
2022/09/15 02:40:42;;;;;;;;;6.75;6.75;26.50;99.90;;;;;;4974926;28;8851;-71
2022/09/15 02:43:18;;;;;;;;;10.50;10.50;26.50;99.90;;;;;;4959622;28;8874;-70
2022/09/15 02:45:48;;;;;;;;;11.25;11.25;26.50;99.90;;;;;;4957756;28;9621;-69
2022/09/15 02:48:20;;;;;;;;;10.00;10.00;26.50;99.90;;;;;;4958242;28;8881;-69
2022/09/15 02:50:51;;;;;;;;;10.00;10.00;26.50;99.90;;;;;;4973964;28;8839;-70
2022/09/15 02:53:24;;;;;;;;;9.00;9.00;26.40;99.90;;;;;;4955629;28;8908;-71
2022/09/15 02:55:55;;;;;;;;;12.50;12.50;26.40;99.90;;;;;;4970191;28;8854;-70
2022/09/15 02:58:25;;;;;;;;;10.00;10.00;26.40;99.90;;;;;;4959255;28;8881;-69
2022/09/15 03:00:56;;;;;;;;;8.50;8.50;26.40;99.90;;;;;;4969386;28;8859;-70
2022/09/15 03:03:31;;;;;;;;;7.75;7.75;26.40;99.90;;;;;;4954118;28;8874;-69
2022/09/15 03:06:16;;;;;;;;;9.00;9.00;26.30;99.90;;;;;;4971488;28;8851;-70
2022/09/15 03:08:57;;;;;;;;;10.00;10.00;26.30;99.90;;;;;;4956101;28;9689;-69
2022/09/15 03:11:30;;;;;;;;;10.00;10.00;26.20;99.90;;;;;;4953738;28;9623;-71
2022/09/15 03:14:07;;;;;;;;;8.00;8.00;26.20;99.90;;;;;;4985197;28;8908;-71
2022/09/15 03:16:40;;;;;;;;;9.50;8.75;26.10;99.90;;;;;;4987587;28;8862;-71
2022/09/15 03:19:11;;;;;;;;;8.00;8.00;26.10;99.90;;;;;;4970924;28;8871;-71
2022/09/15 03:21:41;;;;;;;;;9.00;9.00;26.00;99.90;;;;;;4956242;28;8931;-69
2022/09/15 03:24:14;;;;;;;;;8.50;8.50;26.00;99.90;;;;;;4957902;28;8835;-71
2022/09/15 03:26:43;;;;;;;;;6.00;6.00;26.10;99.90;;;;;;4956869;28;8874;-70
2022/09/15 03:29:15;;;;;;;;;8.00;8.00;26.10;99.90;;;;;;4956706;28;8843;-72
2022/09/15 03:31:45;;;;;;;;;7.00;7.00;26.00;99.90;;;;;;4971714;28;8913;-71
2022/09/15 03:34:16;;;;;;;;;7.00;7.00;25.90;99.90;;;;;;4954961;28;8862;-71
2022/09/15 03:36:48;;;;;;;;;7.50;7.50;25.90;99.90;;;;;;4958482;28;8859;-72
2022/09/15 03:39:19;;;;;;;;;8.25;8.25;25.90;99.90;;;;;;4949477;28;8870;-70
2022/09/15 03:41:49;;;;;;;;;9.00;9.00;25.90;99.90;;;;;;4972650;28;8865;-71
2022/09/15 03:44:21;;;;;;;;;8.00;8.00;25.90;99.90;;;;;;4976911;28;8878;-70
2022/09/15 03:46:52;;;;;;;;;7.00;7.00;25.90;99.90;;;;;;4979816;28;8832;-70
2022/09/15 03:49:23;;;;;;;;;7.00;7.00;25.70;99.90;;;;;;4954639;28;8855;-70
2022/09/15 03:51:53;;;;;;;;;7.00;7.00;25.60;99.90;;;;;;4966559;28;8862;-70
2022/09/15 03:54:24;;;;;;;;;8.50;8.50;25.70;99.90;;;;;;4958005;28;8893;-70
2022/09/15 03:56:55;;;;;;;;;8.75;8.75;25.60;99.90;;;;;;4952943;28;8851;-70
2022/09/15 03:59:25;;;;;;;;;7.00;7.00;25.50;99.90;;;;;;4957333;28;8885;-70
2022/09/15 04:01:57;;;;;;;;;7.50;7.50;25.40;99.90;;;;;;4954205;28;8842;-70
2022/09/15 04:04:28;;;;;;;;;9.00;9.00;25.40;99.90;;;;;;4957887;28;8895;-70
2022/09/15 04:06:59;;;;;;;;;8.00;8.00;25.40;99.90;;;;;;4966167;28;8851;-70
2022/09/15 04:09:30;;;;;;;;;6.25;6.25;25.40;99.90;;;;;;4953867;28;9642;-70
2022/09/15 04:12:01;;;;;;;;;6.50;6.50;25.30;99.90;;;;;;4969296;28;8889;-71
2022/09/15 04:14:32;;;;;;;;;7.50;7.50;25.30;99.90;;;;;;4957807;28;8885;-70
2022/09/15 04:17:03;;;;;;;;;6.00;6.00;25.30;99.90;;;;;;4979731;28;8846;-69
2022/09/15 04:19:36;;;;;;;;;7.50;7.50;25.30;99.90;;;;;;4954369;28;9633;-71
2022/09/15 04:22:07;;;;;;;;;8.00;8.00;25.10;99.90;;;;;;4953531;28;8897;-71
2022/09/15 04:24:47;;;;;;;;;6.75;6.75;24.80;99.90;;;;;;4956034;28;8858;-71
2022/09/15 04:27:18;;;;;;;;;9.50;8.50;24.60;99.90;;;;;;4984277;28;8849;-71
2022/09/15 04:29:51;;;;;;;;;6.25;6.25;24.40;99.90;;;;;;4952928;28;8862;-71
2022/09/15 04:32:22;;;;;;;;;7.00;7.00;24.40;99.90;;;;;;4958944;28;8853;-70
2022/09/15 04:34:53;;;;;;;;;7.75;7.25;24.20;99.90;;;;;;4953973;28;8878;-70
2022/09/15 04:37:23;;;;;;;;;9.50;9.50;24.20;99.90;;;;;;4954484;28;8859;-70
2022/09/15 04:39:56;;;;;;;;;8.00;8.00;24.10;99.90;;;;;;4952287;28;8847;-71
2022/09/15 04:42:26;;;;;;;;;8.25;8.25;24.10;99.90;;;;;;4955043;28;8997;-70
2022/09/15 04:44:56;;;;;;;;;10.50;10.50;24.00;99.90;;;;;;4952827;28;8843;-70
2022/09/15 04:47:26;;;;;;;;;6.75;6.75;23.90;99.90;;;;;;4956513;28;8835;-71
2022/09/15 04:49:58;;;;;;;;;8.25;8.25;23.90;99.90;;;;;;4966510;28;8854;-71
2022/09/15 04:52:28;;;;;;;;;7.50;7.50;24.00;99.90;;;;;;4952185;28;8870;-71
2022/09/15 04:55:01;;;;;;;;;8.00;8.00;23.90;99.90;;;;;;4956242;28;8909;-71
2022/09/15 04:57:33;;;;;;;;;8.00;8.00;23.90;99.90;;;;;;4970581;28;8902;-71
2022/09/15 05:00:06;;;;;;;;;10.50;10.50;23.80;99.90;;;;;;4954097;28;8886;-69
2022/09/15 05:02:39;;;;;;;;;11.00;11.00;23.80;99.90;;;;;;4953181;28;9529;-69
2022/09/15 05:05:10;;;;;;;;;9.50;9.50;23.70;99.90;;;;;;4956873;28;8847;-70
2022/09/15 05:07:40;;;;;;;;;9.00;9.00;23.60;99.90;;;;;;4954382;28;8885;-70
2022/09/15 05:10:12;;;;;;;;;12.00;12.00;23.60;99.90;;;;;;4977944;28;8850;-69
2022/09/15 05:12:44;;;;;;;;;9.75;9.75;23.50;99.90;;;;;;4983324;28;8866;-70
2022/09/15 05:15:15;;;;;;;;;10.00;10.00;23.50;99.90;;;;;;4953316;28;8862;-69
2022/09/15 05:17:52;;;;;;;;;7.25;7.25;23.40;99.90;;;;;;4942436;28;9052;-69
2022/09/15 05:20:22;;;;;;;;;10.75;10.75;23.40;99.90;;;;;;4951783;28;8853;-70
2022/09/15 05:22:55;;;;;;;;;8.75;8.75;23.30;99.90;;;;;;4956087;28;8874;-70
2022/09/15 05:25:28;;;;;;;;;9.25;9.25;23.20;99.90;;;;;;4953568;28;8858;-70
2022/09/15 05:27:59;;;;;;;;;7.75;7.75;23.20;99.90;;;;;;4954179;28;8858;-70
2022/09/15 05:30:31;;;;;;;;;10.50;9.50;23.20;99.90;;;;;;4949692;28;8921;-71
2022/09/15 05:33:07;;;;;;;;;11.25;11.25;23.10;99.90;;;;;;4954494;28;8881;-70
2022/09/15 05:35:50;;;;;;;;;9.00;9.00;23.00;99.90;;;;;;4953466;28;8921;-69
2022/09/15 05:38:21;;;;;;;;;10.50;10.50;23.00;99.90;;;;;;4954642;28;9653;-69
2022/09/15 05:40:52;;;;;;;;;4.25;4.25;22.90;99.90;;;;;;4954381;28;8862;-70
2022/09/15 05:43:31;;;;;;;;;11.75;11.75;22.90;99.90;;;;;;4953289;28;8876;-71
2022/09/15 05:46:03;;;;;;;;;9.75;9.75;22.90;99.90;;;;;;4956990;28;8838;-70
2022/09/15 05:48:36;;;;;;;;;9.00;9.00;22.90;99.90;;;;;;4955477;28;8875;-70
2022/09/15 05:51:08;;;;;;;;;9.75;9.75;22.70;99.90;;;;;;4957623;28;8858;-71
2022/09/15 05:53:39;;;;;;;;;9.50;9.50;22.70;99.90;;;;;;4954260;28;8869;-70
2022/09/15 05:56:15;;;;;;;;;11.25;11.25;22.80;99.90;;;;;;4961018;28;8847;-70
2022/09/15 05:58:49;;;;;;;;;12.25;12.25;22.70;99.90;;;;;;4954640;28;8838;-69
2022/09/15 06:01:24;;;;;;;;;13.00;12.25;22.80;99.90;;;;;;4981356;28;8861;-70
2022/09/15 06:03:55;;;;;;;;;10.25;9.50;22.70;99.90;;;;;;4979081;28;8904;-68
2022/09/15 06:06:26;;;;;;;;;15.50;13.75;22.80;99.90;;;;;;4965544;28;8869;-68
2022/09/15 06:09:00;;;;;;;;;13.00;13.00;22.70;99.90;;;;;;4953291;28;8833;-69
2022/09/15 06:11:32;;;;;;;;;12.50;12.50;22.80;99.90;;;;;;4951448;28;8964;-70
2022/09/15 06:14:04;;;;;;;;;13.00;13.00;22.80;99.90;;;;;;4954127;28;8838;-69
2022/09/15 06:16:36;;;;;;;;;12.00;12.00;22.70;99.90;;;;;;4966060;28;8871;-69
2022/09/15 06:19:10;;;;;;;;;13.75;13.75;22.80;99.90;;;;;;4954349;28;8862;-69
2022/09/15 06:21:42;;;;;;;;;11.75;11.75;22.70;99.90;;;;;;4951634;28;8929;-70
2022/09/15 06:24:13;;;;;;;;;13.50;13.50;22.60;99.90;;;;;;4957580;28;8866;-68
2022/09/15 06:26:44;;;;;;;;;11.25;11.25;22.70;99.90;;;;;;4953752;28;8843;-68
2022/09/15 06:29:13;;;;;;;;;9.50;9.50;22.80;99.90;;;;;;4951360;28;8870;-69
2022/09/15 06:31:43;;;;;;;;;11.25;11.25;22.70;99.90;;;;;;4957080;28;8853;-70
2022/09/15 06:34:13;;;;;;;;;11.25;11.25;22.70;99.90;;;;;;4955388;28;8839;-71
2022/09/15 06:36:43;;;;;;;;;9.75;9.75;22.60;99.90;;;;;;4955260;28;8848;-71
2022/09/15 06:39:14;;;;;;;;;9.00;9.00;22.60;99.90;;;;;;4957802;28;8838;-71
2022/09/15 06:41:47;;;;;;;;;11.00;11.00;22.60;99.90;;;;;;4955947;28;9012;-73
2022/09/15 06:44:35;;;;;;;;;12.50;12.50;22.60;99.90;;;;;;4970478;28;8853;-71
2022/09/15 06:47:06;;;;;;;;;10.00;10.00;22.50;99.90;;;;;;4955630;28;8859;-70
2022/09/15 06:49:37;;;;;;;;;10.00;10.00;22.40;99.90;;;;;;4955485;28;8854;-68
2022/09/15 06:52:08;;;;;;;;;9.75;9.75;22.40;99.90;;;;;;4956640;28;8835;-69
2022/09/15 06:54:38;;;;;;;;;11.50;11.00;22.30;99.90;;;;;;4952142;28;8905;-69
2022/09/15 06:57:09;;;;;;;;;10.25;9.00;22.30;99.90;;;;;;4955996;28;8859;-70
2022/09/15 06:59:40;;;;;;;;;11.25;11.25;22.50;99.90;;;;;;4955711;28;8850;-70
2022/09/15 07:02:11;;;;;;;;;9.00;9.00;22.70;99.90;;;;;;4970731;28;8870;-70
2022/09/15 07:04:40;;;;;;;;;10.50;10.50;23.00;99.90;;;;;;4955814;28;8855;-70
2022/09/15 07:07:11;;;;;;;;;8.50;8.50;23.10;99.90;;;;;;4955882;28;8851;-69
2022/09/15 07:09:42;;;;;;;;;9.25;9.25;23.00;99.90;;;;;;4952896;28;9711;-69
2022/09/15 07:12:19;;;;;;;;;11.50;10.75;23.20;99.90;;;;;;4951301;28;8862;-71
2022/09/15 07:14:49;;;;;;;;;7.25;7.25;23.00;99.90;;;;;;4955978;28;9141;-71
2022/09/15 07:17:20;;;;;;;;;6.25;6.25;22.80;99.90;;;;;;4955005;28;9641;-71
2022/09/15 07:19:59;;;;;;;;;11.75;11.75;22.90;99.90;;;;;;4979048;28;8854;-71
2022/09/15 07:22:29;;;;;;;;;9.50;9.50;22.90;99.90;;;;;;4956533;28;8893;-70
2022/09/15 07:24:59;;;;;;;;;9.00;9.00;23.00;99.90;;;;;;4953019;28;8886;-70
2022/09/15 07:27:30;;;;;;;;;8.25;8.25;23.00;99.90;;;;;;4955980;28;8909;-69
2022/09/15 07:30:02;;;;;;;;;11.00;11.00;23.00;99.90;;;;;;4950457;28;8863;-68
2022/09/15 07:32:37;;;;;;;;;11.25;9.50;22.90;99.90;;;;;;4953388;28;9600;-70
2022/09/15 07:35:11;;;;;;;;;10.50;10.50;22.90;99.90;;;;;;4951751;28;8890;-71
2022/09/15 07:37:43;;;;;;;;;10.75;10.75;22.90;99.90;;;;;;4952133;28;8863;-70
2022/09/15 07:40:14;;;;;;;;;9.25;9.25;22.90;99.90;;;;;;4951219;28;8846;-69
2022/09/15 07:42:45;;;;;;;;;10.25;10.25;22.90;99.90;;;;;;4953775;28;9590;-69
2022/09/15 07:45:16;;;;;;;;;10.50;10.50;22.90;99.90;;;;;;4953965;28;8866;-69
2022/09/15 07:47:46;;;;;;;;;7.50;7.50;22.90;99.90;;;;;;4984015;28;8885;-69
2022/09/15 07:50:19;;;;;;;;;12.25;12.25;23.00;99.90;;;;;;4956529;28;8869;-70
2022/09/15 07:52:48;;;;;;;;;11.25;11.25;22.90;99.90;;;;;;4957426;28;8855;-70
2022/09/15 07:55:27;;;;;;;;;10.25;10.25;22.90;99.90;;;;;;4954159;28;8874;-71
2022/09/15 07:57:59;;;;;;;;;11.25;11.25;22.90;99.90;;;;;;4954496;28;8877;-70
2022/09/15 08:00:30;;;;;;;;;14.00;14.00;22.90;99.90;;;;;;4955641;28;8854;-69
2022/09/15 08:03:03;;;;;;;;;12.25;12.25;22.90;99.90;;;;;;4979400;28;8879;-69
2022/09/15 08:05:33;;;;;;;;;11.00;11.00;22.70;99.90;;;;;;4985010;28;8944;-69
2022/09/15 08:08:14;;;;;;;;;14.50;14.50;22.40;99.90;;;;;;4951991;28;8886;-69
2022/09/15 08:10:47;;;;;;;;;12.50;12.50;22.10;99.90;;;;;;4961051;28;8866;-70
2022/09/15 08:13:19;;;;;;;;;10.25;10.25;22.10;99.90;;;;;;4971117;28;8870;-70
2022/09/15 08:15:51;;;;;;;;;11.67;11.67;22.00;99.90;;;;;;4958590;28;8850;-71
2022/09/15 08:18:24;;;;;;;;;12.00;12.00;22.00;99.90;;;;;;4987492;28;8909;-70
2022/09/15 08:20:54;;;;;;;;;11.25;11.25;21.90;99.90;;;;;;4958692;28;8863;-71
2022/09/15 08:23:24;;;;;;;;;13.50;13.50;21.80;99.90;;;;;;4953940;28;8923;-69
2022/09/15 08:25:55;;;;;;;;;13.00;13.00;21.70;99.90;;;;;;4955680;28;8859;-70
2022/09/15 08:28:25;;;;;;;;;13.25;13.25;21.70;99.90;;;;;;4952930;28;8949;-71
2022/09/15 08:31:04;;;;;;;;;16.00;14.50;21.60;99.90;;;;;;4957257;28;8850;-70
2022/09/15 08:33:34;;;;;;;;;12.00;12.00;21.60;99.90;;;;;;4954263;28;8843;-71
2022/09/15 08:36:10;;;;;;;;;13.25;13.25;21.60;99.90;;;;;;4955240;28;8859;-69
2022/09/15 08:38:41;;;;;;;;;12.00;12.00;21.60;99.90;;;;;;4955956;28;8881;-69
2022/09/15 08:41:26;;;;;;;;;13.25;13.25;21.50;99.90;;;;;;4938255;28;8897;-69
2022/09/15 08:44:15;;;;;;;;;14.50;14.50;21.50;99.90;;;;;;4951828;28;8851;-69
2022/09/15 08:46:53;;;;;;;;;14.25;14.25;21.50;99.90;;;;;;4982575;28;8874;-70
2022/09/15 08:49:58;;;;;;;;;12.75;12.75;21.50;99.90;;;;;;4950355;28;8873;-70
2022/09/15 08:52:59;;;;;;;;;13.50;13.50;21.40;99.90;;;;;;4955993;28;8879;-69
2022/09/15 08:55:51;;;;;;;;;12.75;12.75;21.50;99.90;;;;;;4952850;28;8862;-72
2022/09/15 08:58:29;;;;;;;;;12.75;12.75;21.30;99.90;;;;;;4949118;28;8867;-70
2022/09/15 09:01:01;;;;;;;;;14.50;13.00;21.30;99.90;;;;;;4953182;28;8851;-69
2022/09/15 09:03:38;;;;;;;;;10.25;10.25;21.40;99.90;;;;;;4955865;28;8859;-69
2022/09/15 09:06:20;;;;;;;;;13.25;12.25;21.20;99.90;;;;;;4952435;28;8851;-69
2022/09/15 09:09:24;;;;;;;;;11.50;11.50;21.20;99.90;;;;;;4954744;28;9649;-70
2022/09/15 09:12:18;;;;;;;;;12.25;12.25;21.20;99.90;;;;;;4951968;28;8859;-69
2022/09/15 09:15:07;;;;;;;;;9.25;9.25;21.10;99.90;;;;;;4953931;28;8839;-69
2022/09/15 09:18:15;;;;;;;;;12.75;12.75;21.10;99.90;;;;;;4955905;28;8891;-69
2022/09/15 09:20:52;;;;;;;;;15.00;15.00;21.20;99.90;;;;;;4980924;28;8867;-68
2022/09/15 09:23:28;;;;;;;;;14.25;14.25;21.10;99.90;;;;;;4970711;28;8891;-69
2022/09/15 09:26:00;;;;;;;;;11.50;11.50;21.20;99.90;;;;;;4954121;28;8894;-70
2022/09/15 09:28:53;;;;;;;;;14.75;14.75;21.20;99.90;;;;;;4956082;28;9632;-70
2022/09/15 09:31:26;;;;;;;;;14.25;14.25;21.00;99.90;;;;;;4953727;28;8926;-70
2022/09/15 09:34:34;;;;;;;;;16.00;15.33;21.10;99.90;;;;;;4954917;28;8861;-69
2022/09/15 09:37:19;;;;;;;;;12.25;12.25;21.00;99.90;;;;;;4953646;28;9079;-70
2022/09/15 09:39:51;;;;;;;;;16.50;15.00;21.00;99.90;;;;;;4956002;28;8855;-70
2022/09/15 09:42:30;;;;;;;;;17.00;17.00;21.00;99.90;;;;;;4953610;28;8855;-70
2022/09/15 09:44:59;;;;;;;;;15.50;15.50;20.90;99.90;;;;;;4974153;28;11119;-70
2022/09/15 09:47:33;;;;;;;;;16.00;16.00;20.90;99.90;;;;;;4954841;28;8846;-70
2022/09/15 09:50:06;;;;;;;;;15.25;15.25;20.90;99.90;;;;;;4954978;28;8974;-71
2022/09/15 09:52:39;;;;;;;;;15.00;15.00;20.90;99.90;;;;;;4969394;28;9511;-69
2022/09/15 09:55:19;;;;;;;;;14.25;14.25;20.80;99.90;;;;;;4980419;28;9637;-68
2022/09/15 09:57:51;;;;;;;;;16.25;16.25;21.00;99.90;;;;;;4958268;28;8898;-69
2022/09/15 10:00:38;;;;;;;;;14.75;14.00;21.00;99.90;;;;;;4959701;28;8866;-69
2022/09/15 10:03:18;;;;;;;;;15.50;15.50;20.90;99.90;;;;;;4961231;28;8851;-70
2022/09/15 10:06:02;;;;;;;;;16.25;16.25;20.80;99.90;;;;;;4964046;28;8873;-69
2022/09/15 10:08:35;;;;;;;;;12.75;12.75;20.80;99.90;;;;;;4985370;28;8877;-69
2022/09/15 10:11:10;;;;;;;;;18.00;18.00;20.70;99.90;;;;;;4958300;28;8897;-69
2022/09/15 10:13:53;;;;;;;;;15.50;15.50;20.70;99.90;;;;;;4962760;28;9028;-71
2022/09/15 10:16:24;;;;;;;;;15.50;15.50;20.50;99.90;;;;;;4958316;28;9059;-70
2022/09/15 10:19:02;;;;;;;;;16.00;16.00;20.50;99.90;;;;;;4959038;28;8909;-71
2022/09/15 10:21:31;;;;;;;;;11.25;11.25;20.50;99.90;;;;;;4982843;28;9047;-71
2022/09/15 10:24:32;;;;;;;;;13.75;12.75;20.40;99.90;;;;;;4954935;28;8846;-72
2022/09/15 10:27:25;;;;;;;;;16.00;16.00;20.70;99.90;;;;;;4981005;28;8867;-70
2022/09/15 10:29:58;;;;;;;;;17.33;17.33;20.70;99.90;;;;;;4958381;28;8867;-70
2022/09/15 10:32:30;;;;;;;;;13.67;13.67;20.60;99.90;;;;;;4976267;28;8989;-70
2022/09/15 10:35:04;;;;;;;;;18.00;18.00;20.50;99.90;;;;;;4955942;28;9206;-72
2022/09/15 10:37:49;;;;;;;;;17.00;17.00;20.30;99.90;;;;;;4957694;28;9018;-68
2022/09/15 10:40:40;;;;;;;;;15.33;15.33;20.50;99.90;;;;;;4954175;28;9037;-69
2022/09/15 10:43:35;;;;;;;;;15.67;15.67;20.50;99.90;;;;;;4958581;28;9693;-68
2022/09/15 10:46:27;;;;;;;;;17.00;17.00;20.40;99.90;;;;;;4955437;28;9080;-69
2022/09/15 10:49:19;;;;;;;;;18.33;18.33;20.40;99.90;;;;;;4981418;28;9057;-69
2022/09/15 10:52:37;;;;;;;;;15.00;15.00;20.40;99.90;;;;;;4973776;28;9246;-69
2022/09/15 10:55:33;;;;;;;;;15.00;15.00;20.20;99.90;;;;;;4976337;28;9096;-71
2022/09/15 10:58:42;;;;;;;;;15.00;15.00;20.30;99.90;;;;;;4983757;28;9187;-70
2022/09/15 11:01:29;;;;;;;;;18.00;18.00;20.40;99.90;;;;;;4953331;28;9204;-71
2022/09/15 11:04:19;;;;;;;;;13.00;13.00;20.10;99.90;;;;;;4967924;28;9396;-69
2022/09/15 11:07:16;;;;;;;;;17.67;17.67;20.20;99.90;;;;;;4956920;28;10052;-69
2022/09/15 11:10:10;;;;;;;;;15.33;14.00;20.40;99.90;;;;;;4970282;28;9170;-68
2022/09/15 11:13:00;;;;;;;;;18.00;18.00;20.30;99.90;;;;;;4980616;28;9052;-67
2022/09/15 11:15:42;;;;;;;;;14.67;14.67;20.20;99.90;;;;;;4982399;28;9109;-70
2022/09/15 11:18:38;;;;;;;;;18.33;18.33;20.10;99.90;;;;;;4957361;28;9113;-70
2022/09/15 11:21:34;;;;;;;;;16.00;16.00;20.20;99.90;;;;;;4971625;28;9249;-68
2022/09/15 11:24:15;;;;;;;;;18.00;18.00;20.10;99.90;;;;;;4971891;28;9264;-69
2022/09/15 11:27:02;;;;;;;;;17.67;17.67;20.10;99.90;;;;;;4956097;28;9312;-71
2022/09/15 11:29:42;;;;;;;;;18.33;18.33;20.00;99.90;;;;;;4957500;28;9252;-71
2022/09/15 11:32:23;;;;;;;;;16.67;16.67;20.10;99.90;;;;;;4953396;28;9919;-70
2022/09/15 11:34:59;;;;;;;;;16.00;16.00;20.10;99.90;;;;;;4959775;28;9303;-70
2022/09/15 11:37:40;;;;;;;;;20.33;20.33;20.40;99.90;;;;;;4958084;28;9471;-69
2022/09/15 11:40:17;;;;;;;;;17.67;17.67;20.10;99.90;;;;;;4954497;28;9226;-69
2022/09/15 11:43:11;;;;;;;;;18.00;17.00;20.40;99.90;;;;;;4974756;28;9192;-69
2022/09/15 11:45:45;;;;;;;;;17.33;17.33;20.20;99.90;;;;;;4956035;28;9527;-72
2022/09/15 11:48:46;;;;;;;;;18.33;18.33;20.20;99.90;;;;;;4950939;28;9100;-69
2022/09/15 11:51:20;;;;;;;;;19.33;19.33;20.10;99.90;;;;;;4950104;28;9215;-69
2022/09/15 11:54:19;;;;;;;;;20.00;18.67;20.10;99.90;;;;;;4952157;28;9298;-69
2022/09/15 11:56:53;;;;;;;;;15.33;15.33;20.10;99.90;;;;;;4953836;28;9343;-68
2022/09/15 12:00:01;;;;;;;;;16.33;16.33;20.30;99.90;;;;;;4962546;28;10431;-70
2022/09/15 12:02:33;;;;;;;;;13.67;13.67;20.10;99.90;;;;;;4968301;28;9357;-68
2022/09/15 12:05:28;;;;;;;;;20.33;20.33;20.00;99.90;;;;;;4946027;28;9088;-69
2022/09/15 12:08:24;;;;;;;;;18.00;18.00;20.10;99.90;;;;;;4981530;28;9477;-71
2022/09/15 12:11:00;;;;;;;;;19.67;19.67;19.90;99.90;;;;;;4954165;28;10036;-71
2022/09/15 12:13:32;;;;;;;;;19.67;19.67;19.80;99.90;;;;;;4950872;28;9374;-72
2022/09/15 12:16:03;;;;;;;;;19.33;19.33;19.70;99.90;;;;;;4950688;28;9023;-70
2022/09/15 12:19:10;;;;;;;;;23.33;23.33;19.70;99.90;;;;;;4951011;28;9332;-71
2022/09/15 12:21:51;;;;;;;;;20.33;20.33;19.70;99.90;;;;;;4949974;28;9337;-71
2022/09/15 12:24:52;;;;;;;;;16.67;16.67;19.60;99.90;;;;;;4955809;28;9500;-70
2022/09/15 12:27:28;;;;;;;;;20.67;20.67;19.80;99.90;;;;;;4981345;28;9326;-72
2022/09/15 12:30:01;;;;;;;;;19.00;19.00;19.90;99.90;;;;;;4950918;28;9428;-73
2022/09/15 12:32:34;;;;;;;;;22.00;22.00;19.90;99.90;;;;;;4970143;28;9438;-72
2022/09/15 12:35:23;;;;;;;;;23.00;23.00;19.80;99.90;;;;;;4952074;28;9981;-70
2022/09/15 12:37:55;;;;;;;;;17.75;17.75;19.80;99.90;;;;;;4965188;28;9529;-70
2022/09/15 12:40:26;;;;;;;;;20.67;20.67;19.80;99.90;;;;;;4973611;28;9740;-71
2022/09/15 12:43:22;;;;;;;;;23.00;23.00;19.80;99.90;;;;;;4953425;28;9638;-72
2022/09/15 12:45:57;;;;;;;;;20.00;20.00;19.80;99.90;;;;;;4951612;28;9493;-73
2022/09/15 12:48:35;;;;;;;;;22.00;22.00;20.00;99.90;;;;;;4952171;28;9553;-71
2022/09/15 12:51:11;;;;;;;;;21.33;21.33;20.00;99.90;;;;;;4954734;28;9489;-71
2022/09/15 12:53:53;;;;;;;;;21.00;21.00;20.20;99.90;;;;;;4980057;28;9599;-70
2022/09/15 12:56:28;;;;;;;;;23.67;23.67;20.30;99.90;;;;;;4956547;28;9496;-67
2022/09/15 12:59:06;;;;;;;;;20.00;20.00;20.40;99.90;;;;;;4952686;28;9483;-68
2022/09/15 13:01:49;;;;;;;;;17.67;17.67;20.60;99.90;;;;;;4954224;28;9552;-71
2022/09/15 13:04:45;;;;;;;;;20.67;20.67;20.50;99.90;;;;;;4953125;28;9494;-71
2022/09/15 13:07:17;;;;;;;;;20.00;20.00;20.70;99.90;;;;;;4955484;28;10007;-71
2022/09/15 13:09:59;;;;;;;;;23.67;23.00;20.70;99.90;;;;;;4953895;28;9244;-72
2022/09/15 13:12:37;;;;;;;;;19.33;19.33;20.80;99.90;;;;;;4970364;28;9412;-69
2022/09/15 13:15:15;;;;;;;;;20.33;20.33;20.70;99.90;;;;;;4950325;28;9395;-71
2022/09/15 13:17:47;;;;;;;;;19.00;19.00;20.90;99.90;;;;;;4952258;28;9407;-71
2022/09/15 13:20:29;;;;;;;;;18.67;18.67;21.10;99.90;;;;;;4951646;28;9338;-72
2022/09/15 13:23:00;;;;;;;;;20.00;20.00;21.10;99.90;;;;;;4982109;28;9380;-71
2022/09/15 13:25:37;;;;;;;;;16.33;16.33;21.20;99.90;;;;;;4955732;28;9267;-72
2022/09/15 13:28:11;;;;;;;;;16.67;16.67;21.20;99.90;;;;;;4952914;28;9457;-73
2022/09/15 13:31:05;;;;;;;;;16.00;16.00;21.20;99.90;;;;;;4958878;28;9350;-69
2022/09/15 13:34:10;;;;;;;;;20.33;18.67;21.20;99.90;;;;;;4957968;28;9205;-67
2022/09/15 13:37:01;;;;;;;;;13.67;13.67;21.40;99.90;;;;;;4977146;28;9018;-73
2022/09/15 13:40:21;;;;;;;;;17.00;17.00;21.50;99.90;;;;;;4956743;28;9110;-71
2022/09/15 13:43:27;;;;;;;;;19.33;19.33;21.60;99.90;;;;;;4960394;28;9140;-72